sensor_id;sensor_type;location;lat;lon;timestamp;P1;durP1;ratioP1;P2;durP2;ratioP2
19782;SDS011;10051;40.294;-3.754;2022-10-16T00:01:11;8.50;;;2.75;;
19782;SDS011;10051;40.294;-3.754;2022-10-16T00:03:38;8.23;;;3.05;;
19782;SDS011;10051;40.294;-3.754;2022-10-16T00:06:04;9.07;;;3.40;;
19782;SDS011;10051;40.294;-3.754;2022-10-16T00:08:31;7.70;;;3.30;;
19782;SDS011;10051;40.294;-3.754;2022-10-16T00:11:10;6.95;;;3.08;;
19782;SDS011;10051;40.294;-3.754;2022-10-16T00:13:39;5.93;;;2.60;;
19782;SDS011;10051;40.294;-3.754;2022-10-16T00:16:05;9.18;;;2.97;;
19782;SDS011;10051;40.294;-3.754;2022-10-16T00:18:32;12.57;;;3.10;;
19782;SDS011;10051;40.294;-3.754;2022-10-16T00:21:04;6.03;;;3.13;;
19782;SDS011;10051;40.294;-3.754;2022-10-16T00:23:35;10.15;;;3.08;;
19782;SDS011;10051;40.294;-3.754;2022-10-16T00:26:02;6.10;;;2.88;;
19782;SDS011;10051;40.294;-3.754;2022-10-16T00:28:29;8.77;;;2.75;;
19782;SDS011;10051;40.294;-3.754;2022-10-16T00:30:55;10.02;;;2.90;;
19782;SDS011;10051;40.294;-3.754;2022-10-16T00:33:21;6.70;;;2.85;;
19782;SDS011;10051;40.294;-3.754;2022-10-16T00:35:47;7.78;;;3.00;;
19782;SDS011;10051;40.294;-3.754;2022-10-16T00:38:12;6.43;;;3.10;;
19782;SDS011;10051;40.294;-3.754;2022-10-16T00:40:38;9.73;;;2.88;;
19782;SDS011;10051;40.294;-3.754;2022-10-16T00:43:14;11.48;;;3.08;;
19782;SDS011;10051;40.294;-3.754;2022-10-16T00:46:12;10.52;;;3.30;;
19782;SDS011;10051;40.294;-3.754;2022-10-16T00:48:44;7.90;;;3.08;;
19782;SDS011;10051;40.294;-3.754;2022-10-16T00:51:13;10.18;;;2.80;;
19782;SDS011;10051;40.294;-3.754;2022-10-16T00:53:40;7.55;;;2.88;;
19782;SDS011;10051;40.294;-3.754;2022-10-16T00:56:06;7.97;;;2.72;;
19782;SDS011;10051;40.294;-3.754;2022-10-16T00:58:31;9.65;;;2.90;;
19782;SDS011;10051;40.294;-3.754;2022-10-16T01:00:57;8.45;;;2.83;;
19782;SDS011;10051;40.294;-3.754;2022-10-16T01:03:30;10.63;;;3.28;;
19782;SDS011;10051;40.294;-3.754;2022-10-16T01:08:47;9.57;;;3.03;;
19782;SDS011;10051;40.294;-3.754;2022-10-16T01:11:34;8.48;;;2.90;;
19782;SDS011;10051;40.294;-3.754;2022-10-16T01:14:06;6.05;;;2.67;;
19782;SDS011;10051;40.294;-3.754;2022-10-16T01:16:40;7.93;;;2.70;;
19782;SDS011;10051;40.294;-3.754;2022-10-16T01:22:30;9.02;;;3.28;;
19782;SDS011;10051;40.294;-3.754;2022-10-16T01:25:05;10.65;;;3.00;;
19782;SDS011;10051;40.294;-3.754;2022-10-16T01:27:36;9.32;;;3.15;;
19782;SDS011;10051;40.294;-3.754;2022-10-16T01:32:55;5.78;;;3.03;;
19782;SDS011;10051;40.294;-3.754;2022-10-16T01:40:58;5.57;;;2.92;;
19782;SDS011;10051;40.294;-3.754;2022-10-16T01:43:31;11.15;;;3.55;;
19782;SDS011;10051;40.294;-3.754;2022-10-16T01:46:01;7.70;;;3.15;;
19782;SDS011;10051;40.294;-3.754;2022-10-16T01:48:27;6.95;;;3.40;;
19782;SDS011;10051;40.294;-3.754;2022-10-16T01:50:56;8.02;;;3.33;;
19782;SDS011;10051;40.294;-3.754;2022-10-16T01:53:28;13.05;;;3.50;;
19782;SDS011;10051;40.294;-3.754;2022-10-16T01:55:55;6.68;;;3.22;;
19782;SDS011;10051;40.294;-3.754;2022-10-16T01:58:23;6.30;;;3.13;;
19782;SDS011;10051;40.294;-3.754;2022-10-16T02:00:50;9.20;;;3.20;;
19782;SDS011;10051;40.294;-3.754;2022-10-16T02:03:19;5.93;;;3.20;;
19782;SDS011;10051;40.294;-3.754;2022-10-16T02:05:53;6.88;;;3.03;;
19782;SDS011;10051;40.294;-3.754;2022-10-16T02:08:24;8.10;;;2.90;;
19782;SDS011;10051;40.294;-3.754;2022-10-16T02:10:54;7.90;;;3.13;;
19782;SDS011;10051;40.294;-3.754;2022-10-16T02:13:24;6.30;;;2.95;;
19782;SDS011;10051;40.294;-3.754;2022-10-16T02:15:54;7.28;;;2.85;;
19782;SDS011;10051;40.294;-3.754;2022-10-16T02:18:20;8.05;;;3.67;;
19782;SDS011;10051;40.294;-3.754;2022-10-16T02:23:41;5.55;;;2.85;;
19782;SDS011;10051;40.294;-3.754;2022-10-16T02:26:18;6.22;;;3.05;;
19782;SDS011;10051;40.294;-3.754;2022-10-16T02:28:54;9.00;;;3.00;;
19782;SDS011;10051;40.294;-3.754;2022-10-16T02:31:26;7.82;;;3.17;;
19782;SDS011;10051;40.294;-3.754;2022-10-16T02:33:56;8.38;;;3.13;;
19782;SDS011;10051;40.294;-3.754;2022-10-16T02:36:24;5.40;;;2.80;;
19782;SDS011;10051;40.294;-3.754;2022-10-16T02:38:51;9.30;;;2.97;;
19782;SDS011;10051;40.294;-3.754;2022-10-16T02:41:17;8.82;;;3.35;;
19782;SDS011;10051;40.294;-3.754;2022-10-16T02:43:43;7.22;;;2.83;;
19782;SDS011;10051;40.294;-3.754;2022-10-16T02:46:09;9.55;;;3.17;;
19782;SDS011;10051;40.294;-3.754;2022-10-16T02:48:35;7.55;;;2.90;;
19782;SDS011;10051;40.294;-3.754;2022-10-16T02:51:00;7.18;;;3.17;;
19782;SDS011;10051;40.294;-3.754;2022-10-16T02:53:26;7.75;;;2.97;;
19782;SDS011;10051;40.294;-3.754;2022-10-16T02:55:51;8.82;;;3.13;;
19782;SDS011;10051;40.294;-3.754;2022-10-16T02:58:17;6.22;;;3.00;;
19782;SDS011;10051;40.294;-3.754;2022-10-16T03:00:42;5.55;;;2.75;;
19782;SDS011;10051;40.294;-3.754;2022-10-16T03:03:08;10.30;;;3.30;;
19782;SDS011;10051;40.294;-3.754;2022-10-16T03:05:33;9.57;;;2.97;;
19782;SDS011;10051;40.294;-3.754;2022-10-16T03:07:59;5.28;;;2.90;;
19782;SDS011;10051;40.294;-3.754;2022-10-16T03:10:25;7.25;;;3.00;;
19782;SDS011;10051;40.294;-3.754;2022-10-16T03:12:51;12.25;;;3.30;;
19782;SDS011;10051;40.294;-3.754;2022-10-16T03:15:17;7.47;;;2.80;;
19782;SDS011;10051;40.294;-3.754;2022-10-16T03:17:42;7.22;;;3.00;;
19782;SDS011;10051;40.294;-3.754;2022-10-16T03:20:08;6.15;;;2.95;;
19782;SDS011;10051;40.294;-3.754;2022-10-16T03:22:34;8.45;;;3.00;;
19782;SDS011;10051;40.294;-3.754;2022-10-16T03:24:59;9.88;;;2.97;;
19782;SDS011;10051;40.294;-3.754;2022-10-16T03:27:25;9.07;;;2.70;;
19782;SDS011;10051;40.294;-3.754;2022-10-16T03:29:50;7.15;;;2.80;;
19782;SDS011;10051;40.294;-3.754;2022-10-16T03:32:16;8.07;;;2.88;;
19782;SDS011;10051;40.294;-3.754;2022-10-16T03:34:41;7.88;;;2.90;;
19782;SDS011;10051;40.294;-3.754;2022-10-16T03:37:07;6.55;;;2.80;;
19782;SDS011;10051;40.294;-3.754;2022-10-16T03:39:32;10.25;;;2.88;;
19782;SDS011;10051;40.294;-3.754;2022-10-16T03:41:58;6.15;;;2.72;;
19782;SDS011;10051;40.294;-3.754;2022-10-16T03:44:23;11.05;;;2.80;;
19782;SDS011;10051;40.294;-3.754;2022-10-16T03:46:48;8.48;;;2.78;;
19782;SDS011;10051;40.294;-3.754;2022-10-16T03:49:14;10.00;;;3.00;;
19782;SDS011;10051;40.294;-3.754;2022-10-16T03:51:39;10.73;;;3.20;;
19782;SDS011;10051;40.294;-3.754;2022-10-16T03:54:05;4.53;;;2.60;;
19782;SDS011;10051;40.294;-3.754;2022-10-16T03:56:30;7.28;;;2.60;;
19782;SDS011;10051;40.294;-3.754;2022-10-16T03:58:56;7.05;;;3.00;;
19782;SDS011;10051;40.294;-3.754;2022-10-16T04:01:21;6.30;;;2.50;;
19782;SDS011;10051;40.294;-3.754;2022-10-16T04:03:47;8.82;;;2.60;;
19782;SDS011;10051;40.294;-3.754;2022-10-16T04:06:12;10.02;;;2.85;;
19782;SDS011;10051;40.294;-3.754;2022-10-16T04:08:38;6.72;;;2.80;;
19782;SDS011;10051;40.294;-3.754;2022-10-16T04:11:04;7.38;;;2.70;;
19782;SDS011;10051;40.294;-3.754;2022-10-16T04:13:29;4.95;;;2.70;;
19782;SDS011;10051;40.294;-3.754;2022-10-16T04:15:55;7.85;;;2.78;;
19782;SDS011;10051;40.294;-3.754;2022-10-16T04:18:20;6.47;;;2.67;;
19782;SDS011;10051;40.294;-3.754;2022-10-16T04:20:46;8.38;;;2.90;;
19782;SDS011;10051;40.294;-3.754;2022-10-16T04:23:11;6.82;;;2.85;;
19782;SDS011;10051;40.294;-3.754;2022-10-16T04:25:37;7.85;;;2.75;;
19782;SDS011;10051;40.294;-3.754;2022-10-16T04:28:02;9.80;;;2.90;;
19782;SDS011;10051;40.294;-3.754;2022-10-16T04:30:28;7.75;;;2.97;;
19782;SDS011;10051;40.294;-3.754;2022-10-16T04:32:53;9.68;;;2.70;;
19782;SDS011;10051;40.294;-3.754;2022-10-16T04:35:19;8.98;;;3.00;;
19782;SDS011;10051;40.294;-3.754;2022-10-16T04:37:46;7.28;;;3.08;;
19782;SDS011;10051;40.294;-3.754;2022-10-16T04:40:12;9.18;;;2.78;;
19782;SDS011;10051;40.294;-3.754;2022-10-16T04:42:38;7.75;;;2.88;;
19782;SDS011;10051;40.294;-3.754;2022-10-16T04:45:04;7.25;;;2.90;;
19782;SDS011;10051;40.294;-3.754;2022-10-16T04:47:30;8.75;;;2.70;;
19782;SDS011;10051;40.294;-3.754;2022-10-16T04:49:56;11.88;;;2.85;;
19782;SDS011;10051;40.294;-3.754;2022-10-16T04:52:22;8.38;;;2.95;;
19782;SDS011;10051;40.294;-3.754;2022-10-16T04:54:49;8.25;;;2.80;;
19782;SDS011;10051;40.294;-3.754;2022-10-16T04:57:15;12.80;;;2.80;;
19782;SDS011;10051;40.294;-3.754;2022-10-16T04:59:41;11.40;;;2.88;;
19782;SDS011;10051;40.294;-3.754;2022-10-16T05:02:07;9.77;;;3.03;;
19782;SDS011;10051;40.294;-3.754;2022-10-16T05:04:32;7.20;;;2.70;;
19782;SDS011;10051;40.294;-3.754;2022-10-16T05:06:58;7.15;;;2.92;;
19782;SDS011;10051;40.294;-3.754;2022-10-16T05:09:23;8.93;;;2.70;;
19782;SDS011;10051;40.294;-3.754;2022-10-16T05:11:49;9.52;;;2.60;;
19782;SDS011;10051;40.294;-3.754;2022-10-16T05:14:14;7.95;;;2.60;;
19782;SDS011;10051;40.294;-3.754;2022-10-16T05:16:40;11.85;;;2.95;;
19782;SDS011;10051;40.294;-3.754;2022-10-16T05:19:05;8.70;;;3.20;;
19782;SDS011;10051;40.294;-3.754;2022-10-16T05:21:31;9.18;;;2.85;;
19782;SDS011;10051;40.294;-3.754;2022-10-16T05:23:56;7.80;;;3.00;;
19782;SDS011;10051;40.294;-3.754;2022-10-16T05:26:21;12.32;;;2.78;;
19782;SDS011;10051;40.294;-3.754;2022-10-16T05:28:47;9.15;;;2.92;;
19782;SDS011;10051;40.294;-3.754;2022-10-16T05:31:14;15.55;;;2.90;;
19782;SDS011;10051;40.294;-3.754;2022-10-16T05:33:39;9.75;;;3.00;;
19782;SDS011;10051;40.294;-3.754;2022-10-16T05:36:05;11.65;;;3.00;;
19782;SDS011;10051;40.294;-3.754;2022-10-16T05:38:33;9.73;;;2.80;;
19782;SDS011;10051;40.294;-3.754;2022-10-16T05:40:59;7.70;;;3.00;;
19782;SDS011;10051;40.294;-3.754;2022-10-16T05:43:26;7.72;;;3.17;;
19782;SDS011;10051;40.294;-3.754;2022-10-16T05:46:00;13.65;;;3.45;;
19782;SDS011;10051;40.294;-3.754;2022-10-16T05:48:29;9.48;;;3.00;;
19782;SDS011;10051;40.294;-3.754;2022-10-16T05:53:28;8.27;;;3.28;;
19782;SDS011;10051;40.294;-3.754;2022-10-16T05:55:55;8.75;;;3.15;;
19782;SDS011;10051;40.294;-3.754;2022-10-16T05:58:21;6.90;;;3.15;;
19782;SDS011;10051;40.294;-3.754;2022-10-16T06:01:00;7.47;;;3.30;;
19782;SDS011;10051;40.294;-3.754;2022-10-16T06:03:34;11.70;;;3.53;;
19782;SDS011;10051;40.294;-3.754;2022-10-16T06:06:07;8.98;;;3.65;;
19782;SDS011;10051;40.294;-3.754;2022-10-16T06:08:36;8.15;;;3.30;;
19782;SDS011;10051;40.294;-3.754;2022-10-16T06:11:04;7.93;;;3.47;;
19782;SDS011;10051;40.294;-3.754;2022-10-16T06:13:30;6.72;;;3.20;;
19782;SDS011;10051;40.294;-3.754;2022-10-16T06:15:57;13.40;;;3.53;;
19782;SDS011;10051;40.294;-3.754;2022-10-16T06:18:24;10.57;;;3.30;;
19782;SDS011;10051;40.294;-3.754;2022-10-16T06:20:51;10.43;;;3.40;;
19782;SDS011;10051;40.294;-3.754;2022-10-16T06:23:16;9.68;;;3.80;;
19782;SDS011;10051;40.294;-3.754;2022-10-16T06:25:41;13.45;;;3.63;;
19782;SDS011;10051;40.294;-3.754;2022-10-16T06:28:07;9.25;;;4.07;;
19782;SDS011;10051;40.294;-3.754;2022-10-16T06:30:32;9.88;;;3.78;;
19782;SDS011;10051;40.294;-3.754;2022-10-16T06:32:58;13.75;;;4.40;;
19782;SDS011;10051;40.294;-3.754;2022-10-16T06:35:23;10.57;;;4.30;;
19782;SDS011;10051;40.294;-3.754;2022-10-16T06:37:49;11.07;;;3.95;;
19782;SDS011;10051;40.294;-3.754;2022-10-16T06:40:14;10.32;;;4.30;;
19782;SDS011;10051;40.294;-3.754;2022-10-16T06:42:41;12.05;;;3.97;;
19782;SDS011;10051;40.294;-3.754;2022-10-16T06:45:07;11.32;;;4.70;;
19782;SDS011;10051;40.294;-3.754;2022-10-16T06:47:32;13.95;;;4.60;;
19782;SDS011;10051;40.294;-3.754;2022-10-16T06:49:58;12.43;;;5.05;;
19782;SDS011;10051;40.294;-3.754;2022-10-16T06:52:23;19.38;;;5.20;;
19782;SDS011;10051;40.294;-3.754;2022-10-16T06:54:49;14.75;;;5.47;;
19782;SDS011;10051;40.294;-3.754;2022-10-16T06:57:15;12.93;;;5.45;;
19782;SDS011;10051;40.294;-3.754;2022-10-16T06:59:41;11.25;;;5.57;;
19782;SDS011;10051;40.294;-3.754;2022-10-16T07:02:07;13.50;;;5.70;;
19782;SDS011;10051;40.294;-3.754;2022-10-16T07:04:35;17.05;;;5.78;;
19782;SDS011;10051;40.294;-3.754;2022-10-16T07:07:01;15.00;;;6.07;;
19782;SDS011;10051;40.294;-3.754;2022-10-16T07:09:26;16.20;;;5.32;;
19782;SDS011;10051;40.294;-3.754;2022-10-16T07:11:52;13.60;;;5.57;;
19782;SDS011;10051;40.294;-3.754;2022-10-16T07:14:18;14.50;;;5.95;;
19782;SDS011;10051;40.294;-3.754;2022-10-16T07:16:45;14.00;;;5.75;;
19782;SDS011;10051;40.294;-3.754;2022-10-16T07:19:11;13.30;;;5.80;;
19782;SDS011;10051;40.294;-3.754;2022-10-16T07:21:38;12.18;;;5.10;;
19782;SDS011;10051;40.294;-3.754;2022-10-16T07:24:05;12.52;;;4.85;;
19782;SDS011;10051;40.294;-3.754;2022-10-16T07:26:32;13.23;;;4.60;;
19782;SDS011;10051;40.294;-3.754;2022-10-16T07:28:59;12.38;;;4.50;;
19782;SDS011;10051;40.294;-3.754;2022-10-16T07:31:26;10.10;;;4.35;;
19782;SDS011;10051;40.294;-3.754;2022-10-16T07:33:52;17.23;;;4.57;;
19782;SDS011;10051;40.294;-3.754;2022-10-16T07:36:18;11.50;;;4.20;;
19782;SDS011;10051;40.294;-3.754;2022-10-16T07:38:45;11.98;;;4.70;;
19782;SDS011;10051;40.294;-3.754;2022-10-16T07:41:12;12.93;;;4.30;;
19782;SDS011;10051;40.294;-3.754;2022-10-16T07:43:39;12.23;;;4.65;;
19782;SDS011;10051;40.294;-3.754;2022-10-16T07:46:05;13.43;;;3.78;;
19782;SDS011;10051;40.294;-3.754;2022-10-16T07:48:32;13.48;;;3.65;;
19782;SDS011;10051;40.294;-3.754;2022-10-16T07:50:59;12.00;;;3.55;;
19782;SDS011;10051;40.294;-3.754;2022-10-16T07:53:26;12.18;;;3.25;;
19782;SDS011;10051;40.294;-3.754;2022-10-16T07:55:52;12.48;;;2.85;;
19782;SDS011;10051;40.294;-3.754;2022-10-16T07:58:23;9.73;;;3.00;;
19782;SDS011;10051;40.294;-3.754;2022-10-16T08:00:48;12.38;;;3.30;;
19782;SDS011;10051;40.294;-3.754;2022-10-16T08:03:14;10.63;;;3.45;;
19782;SDS011;10051;40.294;-3.754;2022-10-16T08:05:39;11.95;;;3.67;;
19782;SDS011;10051;40.294;-3.754;2022-10-16T08:08:05;12.55;;;3.38;;
19782;SDS011;10051;40.294;-3.754;2022-10-16T08:10:30;10.48;;;3.20;;
19782;SDS011;10051;40.294;-3.754;2022-10-16T08:12:56;13.48;;;4.22;;
19782;SDS011;10051;40.294;-3.754;2022-10-16T08:15:22;11.68;;;4.00;;
19782;SDS011;10051;40.294;-3.754;2022-10-16T08:17:57;11.50;;;3.55;;
19782;SDS011;10051;40.294;-3.754;2022-10-16T08:20:25;10.00;;;5.18;;
19782;SDS011;10051;40.294;-3.754;2022-10-16T08:22:51;11.43;;;3.85;;
19782;SDS011;10051;40.294;-3.754;2022-10-16T08:25:17;14.68;;;3.42;;
19782;SDS011;10051;40.294;-3.754;2022-10-16T08:27:42;14.45;;;4.03;;
19782;SDS011;10051;40.294;-3.754;2022-10-16T08:30:09;15.30;;;3.67;;
19782;SDS011;10051;40.294;-3.754;2022-10-16T08:32:36;15.43;;;3.40;;
19782;SDS011;10051;40.294;-3.754;2022-10-16T08:35:01;12.95;;;3.22;;
19782;SDS011;10051;40.294;-3.754;2022-10-16T08:37:30;12.48;;;3.70;;
19782;SDS011;10051;40.294;-3.754;2022-10-16T08:39:56;16.45;;;3.95;;
19782;SDS011;10051;40.294;-3.754;2022-10-16T08:42:30;8.43;;;3.53;;
19782;SDS011;10051;40.294;-3.754;2022-10-16T08:48:22;15.50;;;4.10;;
19782;SDS011;10051;40.294;-3.754;2022-10-16T08:51:00;13.38;;;4.43;;
19782;SDS011;10051;40.294;-3.754;2022-10-16T08:53:29;13.80;;;4.07;;
19782;SDS011;10051;40.294;-3.754;2022-10-16T08:56:01;16.08;;;3.97;;
19782;SDS011;10051;40.294;-3.754;2022-10-16T08:58:28;16.75;;;4.03;;
19782;SDS011;10051;40.294;-3.754;2022-10-16T09:01:00;13.70;;;4.18;;
19782;SDS011;10051;40.294;-3.754;2022-10-16T09:09:06;10.82;;;3.55;;
19782;SDS011;10051;40.294;-3.754;2022-10-16T09:17:06;14.70;;;3.63;;
19782;SDS011;10051;40.294;-3.754;2022-10-16T09:19:37;19.27;;;3.35;;
19782;SDS011;10051;40.294;-3.754;2022-10-16T09:22:15;11.90;;;3.60;;
19782;SDS011;10051;40.294;-3.754;2022-10-16T09:24:41;8.40;;;3.25;;
19782;SDS011;10051;40.294;-3.754;2022-10-16T09:27:11;16.40;;;3.55;;
19782;SDS011;10051;40.294;-3.754;2022-10-16T09:29:39;11.35;;;3.05;;
19782;SDS011;10051;40.294;-3.754;2022-10-16T09:32:12;9.23;;;2.90;;
19782;SDS011;10051;40.294;-3.754;2022-10-16T09:34:45;8.15;;;3.10;;
19782;SDS011;10051;40.294;-3.754;2022-10-16T09:37:14;14.05;;;3.25;;
19782;SDS011;10051;40.294;-3.754;2022-10-16T09:39:47;10.98;;;3.10;;
19782;SDS011;10051;40.294;-3.754;2022-10-16T09:42:16;15.52;;;3.47;;
19782;SDS011;10051;40.294;-3.754;2022-10-16T09:44:48;11.85;;;3.38;;
19782;SDS011;10051;40.294;-3.754;2022-10-16T09:47:17;11.48;;;3.65;;
19782;SDS011;10051;40.294;-3.754;2022-10-16T09:50:02;12.88;;;3.42;;
19782;SDS011;10051;40.294;-3.754;2022-10-16T09:52:31;11.82;;;3.70;;
19782;SDS011;10051;40.294;-3.754;2022-10-16T09:54:58;12.98;;;3.30;;
19782;SDS011;10051;40.294;-3.754;2022-10-16T09:57:26;14.55;;;3.58;;
19782;SDS011;10051;40.294;-3.754;2022-10-16T09:59:53;13.40;;;3.60;;
19782;SDS011;10051;40.294;-3.754;2022-10-16T10:04:57;8.68;;;3.38;;
19782;SDS011;10051;40.294;-3.754;2022-10-16T10:09:59;13.07;;;3.20;;
19782;SDS011;10051;40.294;-3.754;2022-10-16T10:12:27;11.35;;;3.20;;
19782;SDS011;10051;40.294;-3.754;2022-10-16T10:14:56;15.13;;;3.60;;
19782;SDS011;10051;40.294;-3.754;2022-10-16T10:17:24;9.13;;;3.40;;
19782;SDS011;10051;40.294;-3.754;2022-10-16T10:22:27;10.60;;;3.40;;
19782;SDS011;10051;40.294;-3.754;2022-10-16T10:24:54;9.82;;;3.42;;
19782;SDS011;10051;40.294;-3.754;2022-10-16T10:27:21;12.95;;;3.15;;
19782;SDS011;10051;40.294;-3.754;2022-10-16T10:30:10;9.23;;;2.92;;
19782;SDS011;10051;40.294;-3.754;2022-10-16T10:35:30;11.95;;;2.97;;
19782;SDS011;10051;40.294;-3.754;2022-10-16T10:38:32;14.73;;;2.88;;
19782;SDS011;10051;40.294;-3.754;2022-10-16T10:41:12;10.75;;;2.78;;
19782;SDS011;10051;40.294;-3.754;2022-10-16T10:46:32;13.98;;;3.08;;
19782;SDS011;10051;40.294;-3.754;2022-10-16T10:54:09;8.38;;;2.80;;
19782;SDS011;10051;40.294;-3.754;2022-10-16T10:56:41;11.40;;;2.70;;
19782;SDS011;10051;40.294;-3.754;2022-10-16T11:05:30;16.40;;;2.85;;
19782;SDS011;10051;40.294;-3.754;2022-10-16T11:08:10;13.05;;;3.00;;
19782;SDS011;10051;40.294;-3.754;2022-10-16T11:11:31;7.22;;;2.65;;
19782;SDS011;10051;40.294;-3.754;2022-10-16T11:16:13;12.80;;;2.85;;
19782;SDS011;10051;40.294;-3.754;2022-10-16T11:21:19;9.60;;;2.60;;
19782;SDS011;10051;40.294;-3.754;2022-10-16T11:26:33;9.70;;;2.75;;
19782;SDS011;10051;40.294;-3.754;2022-10-16T11:29:01;8.63;;;2.75;;
19782;SDS011;10051;40.294;-3.754;2022-10-16T11:31:37;11.75;;;3.28;;
19782;SDS011;10051;40.294;-3.754;2022-10-16T11:36:50;15.25;;;3.58;;
19782;SDS011;10051;40.294;-3.754;2022-10-16T11:39:38;11.93;;;2.90;;
19782;SDS011;10051;40.294;-3.754;2022-10-16T11:42:09;8.88;;;2.70;;
19782;SDS011;10051;40.294;-3.754;2022-10-16T11:47:35;11.15;;;3.60;;
19782;SDS011;10051;40.294;-3.754;2022-10-16T11:55:32;10.00;;;2.97;;
19782;SDS011;10051;40.294;-3.754;2022-10-16T11:58:03;9.93;;;2.75;;
19782;SDS011;10051;40.294;-3.754;2022-10-16T12:00:37;11.27;;;2.92;;
19782;SDS011;10051;40.294;-3.754;2022-10-16T12:03:20;7.03;;;2.78;;
19782;SDS011;10051;40.294;-3.754;2022-10-16T12:08:29;9.52;;;3.00;;
19782;SDS011;10051;40.294;-3.754;2022-10-16T12:11:05;6.50;;;2.75;;
19782;SDS011;10051;40.294;-3.754;2022-10-16T12:13:45;7.57;;;2.65;;
19782;SDS011;10051;40.294;-3.754;2022-10-16T12:18:43;5.55;;;2.65;;
19782;SDS011;10051;40.294;-3.754;2022-10-16T12:21:10;9.32;;;2.83;;
19782;SDS011;10051;40.294;-3.754;2022-10-16T12:23:47;7.95;;;2.70;;
19782;SDS011;10051;40.294;-3.754;2022-10-16T12:26:23;8.32;;;2.75;;
19782;SDS011;10051;40.294;-3.754;2022-10-16T12:28:53;9.05;;;2.60;;
19782;SDS011;10051;40.294;-3.754;2022-10-16T12:31:20;8.80;;;2.63;;
19782;SDS011;10051;40.294;-3.754;2022-10-16T12:33:59;7.88;;;2.60;;
19782;SDS011;10051;40.294;-3.754;2022-10-16T12:36:28;11.13;;;3.00;;
19782;SDS011;10051;40.294;-3.754;2022-10-16T12:38:58;12.07;;;3.42;;
19782;SDS011;10051;40.294;-3.754;2022-10-16T12:43:53;11.32;;;2.50;;
19782;SDS011;10051;40.294;-3.754;2022-10-16T12:48:47;9.20;;;2.60;;
19782;SDS011;10051;40.294;-3.754;2022-10-16T12:51:24;6.13;;;2.60;;
19782;SDS011;10051;40.294;-3.754;2022-10-16T12:54:00;7.97;;;2.25;;
19782;SDS011;10051;40.294;-3.754;2022-10-16T12:56:47;14.15;;;2.60;;
19782;SDS011;10051;40.294;-3.754;2022-10-16T13:04:46;9.43;;;3.00;;
19782;SDS011;10051;40.294;-3.754;2022-10-16T13:17:52;8.77;;;2.95;;
19782;SDS011;10051;40.294;-3.754;2022-10-16T13:20:21;7.80;;;2.80;;
19782;SDS011;10051;40.294;-3.754;2022-10-16T13:25:57;9.93;;;3.00;;
19782;SDS011;10051;40.294;-3.754;2022-10-16T13:28:31;11.25;;;3.05;;
19782;SDS011;10051;40.294;-3.754;2022-10-16T13:30:59;9.00;;;3.05;;
19782;SDS011;10051;40.294;-3.754;2022-10-16T13:36:03;10.02;;;2.78;;
19782;SDS011;10051;40.294;-3.754;2022-10-16T13:38:38;12.20;;;2.97;;
19782;SDS011;10051;40.294;-3.754;2022-10-16T13:41:05;8.23;;;3.08;;
19782;SDS011;10051;40.294;-3.754;2022-10-16T13:46:13;11.20;;;3.35;;
19782;SDS011;10051;40.294;-3.754;2022-10-16T13:48:40;12.05;;;3.20;;
19782;SDS011;10051;40.294;-3.754;2022-10-16T13:53:38;11.15;;;3.40;;
19782;SDS011;10051;40.294;-3.754;2022-10-16T13:56:05;10.70;;;3.10;;
19782;SDS011;10051;40.294;-3.754;2022-10-16T13:58:33;11.18;;;3.15;;
19782;SDS011;10051;40.294;-3.754;2022-10-16T14:01:00;13.15;;;2.67;;
19782;SDS011;10051;40.294;-3.754;2022-10-16T14:03:28;10.57;;;2.88;;
19782;SDS011;10051;40.294;-3.754;2022-10-16T14:05:56;13.93;;;2.53;;
19782;SDS011;10051;40.294;-3.754;2022-10-16T14:08:25;12.15;;;2.60;;
19782;SDS011;10051;40.294;-3.754;2022-10-16T14:10:53;9.75;;;2.50;;
19782;SDS011;10051;40.294;-3.754;2022-10-16T14:13:40;12.48;;;2.80;;
19782;SDS011;10051;40.294;-3.754;2022-10-16T14:16:10;9.70;;;2.72;;
19782;SDS011;10051;40.294;-3.754;2022-10-16T14:18:45;11.75;;;2.70;;
19782;SDS011;10051;40.294;-3.754;2022-10-16T14:21:17;10.45;;;2.65;;
19782;SDS011;10051;40.294;-3.754;2022-10-16T14:23:43;9.27;;;2.95;;
19782;SDS011;10051;40.294;-3.754;2022-10-16T14:28:34;11.05;;;3.00;;
19782;SDS011;10051;40.294;-3.754;2022-10-16T14:31:01;9.18;;;2.47;;
19782;SDS011;10051;40.294;-3.754;2022-10-16T14:36:12;11.07;;;3.10;;
19782;SDS011;10051;40.294;-3.754;2022-10-16T14:38:40;8.80;;;2.80;;
19782;SDS011;10051;40.294;-3.754;2022-10-16T14:41:08;8.88;;;2.70;;
19782;SDS011;10051;40.294;-3.754;2022-10-16T14:43:39;12.38;;;2.78;;
19782;SDS011;10051;40.294;-3.754;2022-10-16T14:46:13;6.85;;;2.78;;
19782;SDS011;10051;40.294;-3.754;2022-10-16T14:48:43;9.63;;;2.65;;
19782;SDS011;10051;40.294;-3.754;2022-10-16T14:51:17;12.93;;;2.75;;
19782;SDS011;10051;40.294;-3.754;2022-10-16T14:53:44;10.45;;;3.10;;
19782;SDS011;10051;40.294;-3.754;2022-10-16T14:56:21;6.85;;;2.70;;
19782;SDS011;10051;40.294;-3.754;2022-10-16T14:58:52;10.38;;;3.03;;
19782;SDS011;10051;40.294;-3.754;2022-10-16T15:01:19;9.27;;;2.90;;
19782;SDS011;10051;40.294;-3.754;2022-10-16T15:03:45;9.73;;;3.13;;
19782;SDS011;10051;40.294;-3.754;2022-10-16T15:06:11;11.00;;;3.17;;
19782;SDS011;10051;40.294;-3.754;2022-10-16T15:08:37;11.02;;;3.20;;
19782;SDS011;10051;40.294;-3.754;2022-10-16T15:11:03;13.18;;;2.90;;
19782;SDS011;10051;40.294;-3.754;2022-10-16T15:13:29;9.27;;;2.95;;
19782;SDS011;10051;40.294;-3.754;2022-10-16T15:15:55;6.28;;;2.35;;
19782;SDS011;10051;40.294;-3.754;2022-10-16T15:18:20;8.13;;;2.50;;
19782;SDS011;10051;40.294;-3.754;2022-10-16T15:20:50;11.40;;;2.63;;
19782;SDS011;10051;40.294;-3.754;2022-10-16T15:23:16;17.45;;;2.50;;
19782;SDS011;10051;40.294;-3.754;2022-10-16T15:25:51;15.05;;;2.60;;
19782;SDS011;10051;40.294;-3.754;2022-10-16T15:28:18;10.52;;;2.35;;
19782;SDS011;10051;40.294;-3.754;2022-10-16T15:30:45;10.57;;;2.67;;
19782;SDS011;10051;40.294;-3.754;2022-10-16T15:33:12;10.70;;;2.40;;
19782;SDS011;10051;40.294;-3.754;2022-10-16T15:35:40;8.57;;;2.95;;
19782;SDS011;10051;40.294;-3.754;2022-10-16T15:38:05;10.63;;;2.80;;
19782;SDS011;10051;40.294;-3.754;2022-10-16T15:40:31;7.75;;;3.00;;
19782;SDS011;10051;40.294;-3.754;2022-10-16T15:42:56;9.93;;;2.70;;
19782;SDS011;10051;40.294;-3.754;2022-10-16T15:45:22;7.18;;;2.45;;
19782;SDS011;10051;40.294;-3.754;2022-10-16T15:47:47;8.45;;;2.47;;
19782;SDS011;10051;40.294;-3.754;2022-10-16T15:50:14;6.75;;;2.80;;
19782;SDS011;10051;40.294;-3.754;2022-10-16T15:52:40;8.57;;;2.53;;
19782;SDS011;10051;40.294;-3.754;2022-10-16T15:55:07;9.13;;;2.70;;
19782;SDS011;10051;40.294;-3.754;2022-10-16T15:57:37;12.23;;;2.50;;
19782;SDS011;10051;40.294;-3.754;2022-10-16T16:00:07;12.27;;;3.03;;
19782;SDS011;10051;40.294;-3.754;2022-10-16T16:02:40;6.15;;;2.60;;
19782;SDS011;10051;40.294;-3.754;2022-10-16T16:05:07;10.25;;;3.00;;
19782;SDS011;10051;40.294;-3.754;2022-10-16T16:07:33;10.48;;;2.58;;
19782;SDS011;10051;40.294;-3.754;2022-10-16T16:10:00;11.23;;;2.95;;
19782;SDS011;10051;40.294;-3.754;2022-10-16T16:12:25;6.93;;;2.85;;
19782;SDS011;10051;40.294;-3.754;2022-10-16T16:14:51;9.93;;;2.90;;
19782;SDS011;10051;40.294;-3.754;2022-10-16T16:17:16;6.78;;;2.70;;
19782;SDS011;10051;40.294;-3.754;2022-10-16T16:19:43;7.88;;;2.90;;
19782;SDS011;10051;40.294;-3.754;2022-10-16T16:22:08;11.95;;;2.90;;
19782;SDS011;10051;40.294;-3.754;2022-10-16T16:24:34;8.90;;;2.88;;
19782;SDS011;10051;40.294;-3.754;2022-10-16T16:26:59;10.45;;;3.25;;
19782;SDS011;10051;40.294;-3.754;2022-10-16T16:29:25;9.75;;;2.95;;
19782;SDS011;10051;40.294;-3.754;2022-10-16T16:31:50;14.93;;;3.00;;
19782;SDS011;10051;40.294;-3.754;2022-10-16T16:34:22;15.13;;;2.80;;
19782;SDS011;10051;40.294;-3.754;2022-10-16T16:36:50;7.65;;;2.60;;